sensor_id;sensor_type;location;lat;lon;timestamp;pressure;altitude;pressure_sealevel;temperature;humidity
44825;BME280;30542;47.928;2.138;2023-05-10T00:00:40;100258.69;;;20.38;55.67
44825;BME280;30542;47.928;2.138;2023-05-10T00:05:41;100254.44;;;20.36;55.78
44825;BME280;30542;47.928;2.138;2023-05-10T00:10:41;100247.19;;;20.32;55.54
44825;BME280;30542;47.928;2.138;2023-05-10T00:15:42;100253.59;;;20.36;55.77
44825;BME280;30542;47.928;2.138;2023-05-10T00:20:42;100254.69;;;20.35;55.64
44825;BME280;30542;47.928;2.138;2023-05-10T00:25:42;100250.69;;;20.32;55.24
44825;BME280;30542;47.928;2.138;2023-05-10T00:30:43;100251.50;;;20.33;55.75
44825;BME280;30542;47.928;2.138;2023-05-10T00:35:43;100259.50;;;20.33;56.19
44825;BME280;30542;47.928;2.138;2023-05-10T00:40:43;100258.72;;;20.32;55.55
44825;BME280;30542;47.928;2.138;2023-05-10T00:45:44;100254.69;;;20.30;55.51
44825;BME280;30542;47.928;2.138;2023-05-10T00:50:44;100250.13;;;20.30;55.35
44825;BME280;30542;47.928;2.138;2023-05-10T00:55:45;100251.47;;;20.28;55.73
44825;BME280;30542;47.928;2.138;2023-05-10T01:00:46;100246.66;;;20.30;55.22
44825;BME280;30542;47.928;2.138;2023-05-10T01:05:48;100245.06;;;20.29;55.50
44825;BME280;30542;47.928;2.138;2023-05-10T01:10:49;100253.09;;;20.29;55.49
44825;BME280;30542;47.928;2.138;2023-05-10T01:15:49;100250.41;;;20.29;55.35
44825;BME280;30542;47.928;2.138;2023-05-10T01:32:03;100250.13;;;20.25;55.19
44825;BME280;30542;47.928;2.138;2023-05-10T01:37:11;100255.78;;;20.24;55.36
44825;BME280;30542;47.928;2.138;2023-05-10T01:42:26;100243.44;;;20.18;55.28
44825;BME280;30542;47.928;2.138;2023-05-10T01:47:43;100244.81;;;20.20;55.15
44825;BME280;30542;47.928;2.138;2023-05-10T01:52:53;100250.16;;;20.20;55.27
44825;BME280;30542;47.928;2.138;2023-05-10T01:58:06;100246.91;;;20.18;55.20
44825;BME280;30542;47.928;2.138;2023-05-10T02:03:10;100251.47;;;20.18;55.22
44825;BME280;30542;47.928;2.138;2023-05-10T02:08:12;100267.00;;;20.16;55.18
44825;BME280;30542;47.928;2.138;2023-05-10T02:13:14;100264.31;;;20.16;55.13
44825;BME280;30542;47.928;2.138;2023-05-10T02:18:16;100263.75;;;20.14;55.24
44825;BME280;30542;47.928;2.138;2023-05-10T02:23:18;100273.66;;;20.13;54.87
44825;BME280;30542;47.928;2.138;2023-05-10T02:28:22;100280.09;;;20.12;54.98
44825;BME280;30542;47.928;2.138;2023-05-10T02:33:23;100273.94;;;20.11;55.04
44825;BME280;30542;47.928;2.138;2023-05-10T02:38:25;100265.91;;;20.11;54.97
44825;BME280;30542;47.928;2.138;2023-05-10T02:43:26;100260.28;;;20.08;55.03
44825;BME280;30542;47.928;2.138;2023-05-10T02:48:28;100256.28;;;20.10;54.98
44825;BME280;30542;47.928;2.138;2023-05-10T02:53:34;100258.94;;;20.10;54.72
44825;BME280;30542;47.928;2.138;2023-05-10T02:58:35;100266.44;;;20.08;54.69
44825;BME280;30542;47.928;2.138;2023-05-10T03:03:36;100262.97;;;20.08;55.12
44825;BME280;30542;47.928;2.138;2023-05-10T03:08:36;100248.78;;;20.02;54.66
44825;BME280;30542;47.928;2.138;2023-05-10T03:13:48;100254.41;;;20.06;54.63
44825;BME280;30542;47.928;2.138;2023-05-10T03:18:58;100249.31;;;20.04;54.74
44825;BME280;30542;47.928;2.138;2023-05-10T03:24:07;100246.66;;;20.04;54.75
44825;BME280;30542;47.928;2.138;2023-05-10T03:29:08;100242.63;;;19.97;54.77
44825;BME280;30542;47.928;2.138;2023-05-10T03:34:09;100245.03;;;19.98;54.60
44825;BME280;30542;47.928;2.138;2023-05-10T03:39:09;100248.78;;;20.02;54.60
44825;BME280;30542;47.928;2.138;2023-05-10T03:44:10;100249.84;;;20.01;54.83
44825;BME280;30542;47.928;2.138;2023-05-10T03:49:10;100246.38;;;20.01;54.49
44825;BME280;30542;47.928;2.138;2023-05-10T03:54:11;100250.13;;;20.00;54.40
44825;BME280;30542;47.928;2.138;2023-05-10T03:59:11;100240.47;;;19.99;54.83
44825;BME280;30542;47.928;2.138;2023-05-10T04:04:11;100244.50;;;19.96;54.50
44825;BME280;30542;47.928;2.138;2023-05-10T04:09:12;100240.75;;;19.97;54.58
44825;BME280;30542;47.928;2.138;2023-05-10T04:14:12;100240.22;;;19.95;54.43
44825;BME280;30542;47.928;2.138;2023-05-10T04:19:12;100240.75;;;19.97;54.51
44825;BME280;30542;47.928;2.138;2023-05-10T04:24:13;100254.63;;;19.94;54.43
44825;BME280;30542;47.928;2.138;2023-05-10T04:29:13;100259.47;;;19.92;53.86
44825;BME280;30542;47.928;2.138;2023-05-10T04:34:14;100261.84;;;19.94;54.53
44825;BME280;30542;47.928;2.138;2023-05-10T04:39:14;100252.75;;;19.95;54.37
44825;BME280;30542;47.928;2.138;2023-05-10T04:44:14;100261.06;;;19.93;54.27
44825;BME280;30542;47.928;2.138;2023-05-10T04:49:15;100266.41;;;19.93;54.68
44825;BME280;30542;47.928;2.138;2023-05-10T04:54:15;100272.81;;;19.92;54.24
44825;BME280;30542;47.928;2.138;2023-05-10T04:59:15;100271.22;;;19.91;54.49
44825;BME280;30542;47.928;2.138;2023-05-10T05:04:16;100271.47;;;19.90;54.37
44825;BME280;30542;47.928;2.138;2023-05-10T05:09:16;100274.94;;;19.90;54.35
44825;BME280;30542;47.928;2.138;2023-05-10T05:14:17;100276.81;;;19.90;53.58
44825;BME280;30542;47.928;2.138;2023-05-10T05:19:17;100284.84;;;19.90;54.34
44825;BME280;30542;47.928;2.138;2023-05-10T05:24:17;100286.72;;;19.89;54.30
44825;BME280;30542;47.928;2.138;2023-05-10T05:29:18;100294.22;;;19.87;54.06
44825;BME280;30542;47.928;2.138;2023-05-10T05:34:18;100305.94;;;19.86;54.22
44825;BME280;30542;47.928;2.138;2023-05-10T05:39:20;100311.28;;;19.86;54.18
44825;BME280;30542;47.928;2.138;2023-05-10T05:44:20;100311.28;;;19.86;54.00
44825;BME280;30542;47.928;2.138;2023-05-10T05:49:21;100321.72;;;19.88;53.96
44825;BME280;30542;47.928;2.138;2023-05-10T05:54:21;100311.84;;;19.83;53.98
44825;BME280;30542;47.928;2.138;2023-05-10T05:59:22;100327.31;;;19.86;53.93
44825;BME280;30542;47.928;2.138;2023-05-10T06:04:22;100325.72;;;19.90;54.01
44825;BME280;30542;47.928;2.138;2023-05-10T06:09:22;100332.16;;;19.89;54.26
44825;BME280;30542;47.928;2.138;2023-05-10T06:14:24;100326.81;;;19.89;54.62
44825;BME280;30542;47.928;2.138;2023-05-10T06:19:24;100332.44;;;19.88;54.90
44825;BME280;30542;47.928;2.138;2023-05-10T06:24:26;100334.53;;;19.85;54.71
44825;BME280;30542;47.928;2.138;2023-05-10T06:29:27;100332.13;;;19.84;55.31
44825;BME280;30542;47.928;2.138;2023-05-10T06:34:28;100335.09;;;19.82;55.34
44825;BME280;30542;47.928;2.138;2023-05-10T06:39:28;100337.50;;;19.84;55.06
44825;BME280;30542;47.928;2.138;2023-05-10T06:44:28;100338.00;;;19.81;55.51
44825;BME280;30542;47.928;2.138;2023-05-10T06:49:29;100336.69;;;19.78;55.64
44825;BME280;30542;47.928;2.138;2023-05-10T06:54:29;100345.50;;;19.84;55.49
44825;BME280;30542;47.928;2.138;2023-05-10T06:59:30;100344.44;;;19.85;55.30
44825;BME280;30542;47.928;2.138;2023-05-10T07:04:30;100355.94;;;19.85;55.42
44825;BME280;30542;47.928;2.138;2023-05-10T07:09:31;100362.34;;;19.84;55.37
44825;BME280;30542;47.928;2.138;2023-05-10T07:14:31;100364.75;;;19.86;55.52
44825;BME280;30542;47.928;2.138;2023-05-10T07:19:31;100363.31;;;19.63;55.25
44825;BME280;30542;47.928;2.138;2023-05-10T07:24:32;100370.94;;;19.07;52.87
44825;BME280;30542;47.928;2.138;2023-05-10T07:29:33;100369.63;;;18.72;52.77
44825;BME280;30542;47.928;2.138;2023-05-10T07:34:33;100367.22;;;18.71;52.96
44825;BME280;30542;47.928;2.138;2023-05-10T07:39:34;100370.00;;;18.86;52.83
44825;BME280;30542;47.928;2.138;2023-05-10T07:44:34;100383.16;;;18.98;53.09
44825;BME280;30542;47.928;2.138;2023-05-10T07:49:34;100385.66;;;19.09;52.74
44825;BME280;30542;47.928;2.138;2023-05-10T07:54:35;100384.63;;;19.16;52.88
44825;BME280;30542;47.928;2.138;2023-05-10T07:59:36;100382.31;;;19.24;53.39
44825;BME280;30542;47.928;2.138;2023-05-10T08:04:36;100388.72;;;19.28;53.62
44825;BME280;30542;47.928;2.138;2023-05-10T08:09:36;100386.34;;;19.32;54.05
44825;BME280;30542;47.928;2.138;2023-05-10T08:14:37;100406.69;;;19.38;53.71
44825;BME280;30542;47.928;2.138;2023-05-10T08:19:37;100390.69;;;19.43;54.72
44825;BME280;30542;47.928;2.138;2023-05-10T08:24:37;100383.25;;;19.45;55.65
44825;BME280;30542;47.928;2.138;2023-05-10T08:29:39;100398.72;;;19.48;55.85
44825;BME280;30542;47.928;2.138;2023-05-10T08:34:39;100393.38;;;19.48;56.03
44825;BME280;30542;47.928;2.138;2023-05-10T08:39:39;100394.19;;;19.49;55.97
44825;BME280;30542;47.928;2.138;2023-05-10T08:44:40;100405.97;;;19.53;56.22
44825;BME280;30542;47.928;2.138;2023-05-10T08:49:43;100405.16;;;19.52;56.48
44825;BME280;30542;47.928;2.138;2023-05-10T08:54:44;100413.44;;;19.51;56.29
44825;BME280;30542;47.928;2.138;2023-05-10T08:59:45;100413.44;;;19.46;56.58
44825;BME280;30542;47.928;2.138;2023-05-10T09:04:46;100423.88;;;19.52;56.24
44825;BME280;30542;47.928;2.138;2023-05-10T09:09:46;100426.53;;;19.52;56.18
44825;BME280;30542;47.928;2.138;2023-05-10T09:14:47;100425.50;;;19.53;56.11
44825;BME280;30542;47.928;2.138;2023-05-10T09:19:48;100403.44;;;19.31;56.35
44825;BME280;30542;47.928;2.138;2023-05-10T09:25:03;100434.84;;;19.56;56.14
44825;BME280;30542;47.928;2.138;2023-05-10T09:30:04;100442.34;;;19.59;55.97
44825;BME280;30542;47.928;2.138;2023-05-10T09:35:09;100448.50;;;19.59;56.11
44825;BME280;30542;47.928;2.138;2023-05-10T09:40:14;100453.38;;;19.63;56.03
44825;BME280;30542;47.928;2.138;2023-05-10T09:45:15;100454.16;;;19.63;56.10
44825;BME280;30542;47.928;2.138;2023-05-10T09:50:15;100461.91;;;19.65;56.06
44825;BME280;30542;47.928;2.138;2023-05-10T09:55:18;100448.81;;;19.63;55.89
44825;BME280;30542;47.928;2.138;2023-05-10T10:00:22;100455.25;;;19.62;55.58
44825;BME280;30542;47.928;2.138;2023-05-10T10:05:48;100457.91;;;19.62;55.66
44825;BME280;30542;47.928;2.138;2023-05-10T10:10:49;100464.28;;;19.61;55.01
44825;BME280;30542;47.928;2.138;2023-05-10T10:15:50;100459.19;;;19.59;55.29
44825;BME280;30542;47.928;2.138;2023-05-10T10:20:54;100456.78;;;19.58;55.23
44825;BME280;30542;47.928;2.138;2023-05-10T10:25:54;100459.19;;;19.59;54.87
44825;BME280;30542;47.928;2.138;2023-05-10T10:30:56;100461.63;;;19.61;55.20
44825;BME280;30542;47.928;2.138;2023-05-10T10:36:02;100459.50;;;19.63;55.81
44825;BME280;30542;47.928;2.138;2023-05-10T10:41:09;100459.50;;;19.63;55.86
44825;BME280;30542;47.928;2.138;2023-05-10T10:46:19;100462.66;;;19.60;56.03
44825;BME280;30542;47.928;2.138;2023-05-10T10:51:20;100456.53;;;19.59;56.05
44825;BME280;30542;47.928;2.138;2023-05-10T10:56:22;100453.84;;;19.59;56.19
44825;BME280;30542;47.928;2.138;2023-05-10T11:01:23;100424.91;;;19.46;56.22
44825;BME280;30542;47.928;2.138;2023-05-10T11:06:34;100438.63;;;19.60;56.48
44825;BME280;30542;47.928;2.138;2023-05-10T11:11:54;100429.31;;;19.63;56.31
44825;BME280;30542;47.928;2.138;2023-05-10T11:17:01;100419.69;;;19.61;56.45
44825;BME280;30542;47.928;2.138;2023-05-10T11:27:07;100421.63;;;19.71;56.39
44825;BME280;30542;47.928;2.138;2023-05-10T11:32:08;100422.69;;;19.70;56.39
44825;BME280;30542;47.928;2.138;2023-05-10T11:37:09;100417.34;;;19.70;56.04
44825;BME280;30542;47.928;2.138;2023-05-10T11:42:09;100408.53;;;19.75;56.18
44825;BME280;30542;47.928;2.138;2023-05-10T11:47:11;100397.84;;;19.75;56.41
44825;BME280;30542;47.928;2.138;2023-05-10T11:52:12;100398.16;;;19.78;56.68
44825;BME280;30542;47.928;2.138;2023-05-10T11:57:12;100394.66;;;19.78;56.81
44825;BME280;30542;47.928;2.138;2023-05-10T12:02:15;100398.41;;;19.82;56.95
44825;BME280;30542;47.928;2.138;2023-05-10T12:07:16;100397.09;;;19.84;56.76
44825;BME280;30542;47.928;2.138;2023-05-10T12:12:25;100393.06;;;19.82;56.70
44825;BME280;30542;47.928;2.138;2023-05-10T12:17:29;100401.34;;;19.80;56.66
44825;BME280;30542;47.928;2.138;2023-05-10T12:22:30;100391.47;;;19.81;56.45
44825;BME280;30542;47.928;2.138;2023-05-10T12:27:33;100392.25;;;19.81;56.21
44825;BME280;30542;47.928;2.138;2023-05-10T12:32:43;100383.69;;;19.74;56.40
44825;BME280;30542;47.928;2.138;2023-05-10T12:37:44;100395.50;;;19.83;56.49
44825;BME280;30542;47.928;2.138;2023-05-10T12:42:44;100386.38;;;19.79;56.54
44825;BME280;30542;47.928;2.138;2023-05-10T12:47:45;100378.91;;;19.81;56.53
44825;BME280;30542;47.928;2.138;2023-05-10T12:52:45;100392.25;;;19.81;56.25
44825;BME280;30542;47.928;2.138;2023-05-10T12:57:45;100374.63;;;19.80;56.11
44825;BME280;30542;47.928;2.138;2023-05-10T13:02:46;100380.75;;;19.81;55.86
44825;BME280;30542;47.928;2.138;2023-05-10T13:07:46;100374.34;;;19.82;56.03
44825;BME280;30542;47.928;2.138;2023-05-10T13:12:46;100383.19;;;19.82;56.37
44825;BME280;30542;47.928;2.138;2023-05-10T13:17:47;100371.16;;;19.80;56.02
44825;BME280;30542;47.928;2.138;2023-05-10T13:22:47;100374.63;;;19.80;56.09
44825;BME280;30542;47.928;2.138;2023-05-10T13:27:47;100367.41;;;19.86;55.84
44825;BME280;30542;47.928;2.138;2023-05-10T13:32:48;100371.16;;;19.85;55.67
44825;BME280;30542;47.928;2.138;2023-05-10T13:37:48;100392.53;;;19.85;55.98
44825;BME280;30542;47.928;2.138;2023-05-10T13:42:49;100381.84;;;19.85;55.84
44825;BME280;30542;47.928;2.138;2023-05-10T13:47:49;100390.66;;;19.85;55.81
44825;BME280;30542;47.928;2.138;2023-05-10T13:52:50;100397.88;;;19.85;55.71
44825;BME280;30542;47.928;2.138;2023-05-10T13:57:50;100389.06;;;19.84;55.62
44825;BME280;30542;47.928;2.138;2023-05-10T14:02:50;100382.66;;;19.85;55.67
44825;BME280;30542;47.928;2.138;2023-05-10T14:07:51;100373.31;;;19.88;55.54
44825;BME280;30542;47.928;2.138;2023-05-10T14:12:51;100374.13;;;19.89;55.44
44825;BME280;30542;47.928;2.138;2023-05-10T14:17:52;100372.75;;;19.86;55.45
44825;BME280;30542;47.928;2.138;2023-05-10T14:22:52;100377.31;;;19.85;55.30
44825;BME280;30542;47.928;2.138;2023-05-10T14:27:52;100375.72;;;19.84;55.55
44825;BME280;30542;47.928;2.138;2023-05-10T14:32:55;100360.97;;;19.82;55.50
44825;BME280;30542;47.928;2.138;2023-05-10T14:37:58;100370.91;;;19.86;55.48
44825;BME280;30542;47.928;2.138;2023-05-10T14:42:58;100362.63;;;19.83;55.42
44825;BME280;30542;47.928;2.138;2023-05-10T14:47:59;100365.81;;;19.85;55.53
44825;BME280;30542;47.928;2.138;2023-05-10T14:53:00;100364.78;;;19.91;55.09
44825;BME280;30542;47.928;2.138;2023-05-10T14:58:02;100350.34;;;19.87;55.29
44825;BME280;30542;47.928;2.138;2023-05-10T15:03:02;100349.25;;;19.88;55.31
44825;BME280;30542;47.928;2.138;2023-05-10T15:08:04;100340.44;;;19.88;55.53
44825;BME280;30542;47.928;2.138;2023-05-10T15:13:05;100339.09;;;19.90;55.79
44825;BME280;30542;47.928;2.138;2023-05-10T15:18:05;100345.81;;;19.93;56.12
44825;BME280;30542;47.928;2.138;2023-05-10T15:23:06;100324.13;;;19.94;56.29
44825;BME280;30542;47.928;2.138;2023-05-10T15:28:06;100331.66;;;19.97;56.20
44825;BME280;30542;47.928;2.138;2023-05-10T15:33:06;100329.78;;;19.98;56.32
44825;BME280;30542;47.928;2.138;2023-05-10T15:38:08;100360.53;;;20.00;55.67
44825;BME280;30542;47.928;2.138;2023-05-10T15:43:09;100361.06;;;20.02;56.18
44825;BME280;30542;47.928;2.138;2023-05-10T15:48:09;100354.13;;;20.01;56.21
44825;BME280;30542;47.928;2.138;2023-05-10T15:53:09;100372.31;;;19.99;56.32
44825;BME280;30542;47.928;2.138;2023-05-10T15:58:10;100383.50;;;19.96;56.47
44825;BME280;30542;47.928;2.138;2023-05-10T16:03:10;100382.72;;;19.96;56.62
44825;BME280;30542;47.928;2.138;2023-05-10T16:08:11;100385.09;;;19.92;56.56
44825;BME280;30542;47.928;2.138;2023-05-10T16:13:11;100371.72;;;19.92;56.41
44825;BME280;30542;47.928;2.138;2023-05-10T16:18:14;100384.81;;;19.94;56.48
44825;BME280;30542;47.928;2.138;2023-05-10T16:23:16;100386.44;;;19.95;56.43
44825;BME280;30542;47.928;2.138;2023-05-10T16:28:17;100387.25;;;19.95;56.34
44825;BME280;30542;47.928;2.138;2023-05-10T16:33:20;100387.25;;;19.95;56.67
44825;BME280;30542;47.928;2.138;2023-05-10T16:38:20;100391.25;;;19.98;56.24
44825;BME280;30542;47.928;2.138;2023-05-10T16:43:20;100373.34;;;19.93;56.41
44825;BME280;30542;47.928;2.138;2023-05-10T16:48:21;100376.56;;;19.95;56.29
44825;BME280;30542;47.928;2.138;2023-05-10T16:53:21;100375.50;;;19.96;56.66
44825;BME280;30542;47.928;2.138;2023-05-10T16:58:21;100384.59;;;19.95;56.62
44825;BME280;30542;47.928;2.138;2023-05-10T17:03:22;100381.09;;;19.95;56.38
44825;BME280;30542;47.928;2.138;2023-05-10T17:08:22;100392.84;;;19.94;56.56
44825;BME280;30542;47.928;2.138;2023-05-10T17:13:22;100389.38;;;19.93;56.58
44825;BME280;30542;47.928;2.138;2023-05-10T17:18:23;100385.09;;;19.92;56.71
44825;BME280;30542;47.928;2.138;2023-05-10T17:23:23;100381.34;;;19.88;56.45
44825;BME280;30542;47.928;2.138;2023-05-10T17:28:23;100388.03;;;19.91;56.32
44825;BME280;30542;47.928;2.138;2023-05-10T17:33:24;100375.19;;;19.88;56.11
44825;BME280;30542;47.928;2.138;2023-05-10T17:38:24;100377.59;;;19.94;56.51
44825;BME280;30542;47.928;2.138;2023-05-10T17:43:25;100384.53;;;19.90;56.58
44825;BME280;30542;47.928;2.138;2023-05-10T17:48:25;100388.84;;;19.91;56.83
44825;BME280;30542;47.928;2.138;2023-05-10T17:53:25;100384.03;;;19.93;56.86
44825;BME280;30542;47.928;2.138;2023-05-10T17:58:26;100387.78;;;19.92;56.92
44825;BME280;30542;47.928;2.138;2023-05-10T18:03:26;100393.91;;;19.93;57.12
44825;BME280;30542;47.928;2.138;2023-05-10T18:08:27;100394.19;;;19.96;57.07
44825;BME280;30542;47.928;2.138;2023-05-10T18:13:29;100389.38;;;19.98;57.38
44825;BME280;30542;47.928;2.138;2023-05-10T18:18:29;100393.41;;;20.01;56.97
44825;BME280;30542;47.928;2.138;2023-05-10T18:23:30;100404.38;;;19.99;57.11
44825;BME280;30542;47.928;2.138;2023-05-10T18:28:30;100399.56;;;19.96;57.30
44825;BME280;30542;47.928;2.138;2023-05-10T18:33:31;100409.69;;;19.94;57.12
44825;BME280;30542;47.928;2.138;2023-05-10T18:38:31;100412.34;;;19.94;57.35
44825;BME280;30542;47.928;2.138;2023-05-10T18:43:32;100415.03;;;19.94;57.38
44825;BME280;30542;47.928;2.138;2023-05-10T18:48:35;100414.00;;;19.95;57.12
44825;BME280;30542;47.928;2.138;2023-05-10T18:53:35;100424.13;;;19.93;57.43
44825;BME280;30542;47.928;2.138;2023-05-10T18:58:36;100423.06;;;19.94;57.43
44825;BME280;30542;47.928;2.138;2023-05-10T19:03:37;100423.06;;;19.94;57.13
44825;BME280;30542;47.928;2.138;2023-05-10T19:08:37;100425.72;;;19.89;57.05
44825;BME280;30542;47.928;2.138;2023-05-10T19:13:38;100429.75;;;19.92;57.37
44825;BME280;30542;47.928;2.138;2023-05-10T19:18:38;100424.09;;;19.88;57.56
44825;BME280;30542;47.928;2.138;2023-05-10T19:23:38;100439.88;;;19.90;57.55
44825;BME280;30542;47.928;2.138;2023-05-10T19:28:40;100440.16;;;19.88;57.45
44825;BME280;30542;47.928;2.138;2023-05-10T19:33:41;100447.09;;;19.89;57.43
44825;BME280;30542;47.928;2.138;2023-05-10T19:38:41;100433.13;;;19.77;57.43
44825;BME280;30542;47.928;2.138;2023-05-10T19:43:41;100455.91;;;19.84;57.25
44825;BME280;30542;47.928;2.138;2023-05-10T19:48:42;100464.47;;;19.86;57.17
44825;BME280;30542;47.928;2.138;2023-05-10T19:53:42;100473.53;;;19.85;57.17
44825;BME280;30542;47.928;2.138;2023-05-10T19:58:43;100478.88;;;19.85;57.09
44825;BME280;30542;47.928;2.138;2023-05-10T20:03:44;100479.69;;;19.86;57.17
44825;BME280;30542;47.928;2.138;2023-05-10T20:08:44;100469.53;;;19.83;57.16
44825;BME280;30542;47.928;2.138;2023-05-10T20:13:44;100479.69;;;19.86;57.21
44825;BME280;30542;47.928;2.138;2023-05-10T20:18:45;100481.81;;;19.84;56.89
44825;BME280;30542;47.928;2.138;2023-05-10T20:23:45;100474.34;;;19.86;57.09
44825;BME280;30542;47.928;2.138;2023-05-10T20:28:45;100475.69;;;19.83;56.70
44825;BME280;30542;47.928;2.138;2023-05-10T20:33:46;100476.47;;;19.84;56.86
44825;BME280;30542;47.928;2.138;2023-05-10T20:38:46;100478.34;;;19.83;56.78
44825;BME280;30542;47.928;2.138;2023-05-10T20:43:46;100480.22;;;19.83;56.53
44825;BME280;30542;47.928;2.138;2023-05-10T20:48:47;100481.03;;;19.83;56.72
44825;BME280;30542;47.928;2.138;2023-05-10T20:53:47;100486.09;;;19.85;56.65
44825;BME280;30542;47.928;2.138;2023-05-10T20:58:47;100481.81;;;19.84;56.42
44825;BME280;30542;47.928;2.138;2023-05-10T21:03:48;100486.38;;;19.83;56.52
44825;BME280;30542;47.928;2.138;2023-05-10T21:08:48;100479.41;;;19.82;56.81
44825;BME280;30542;47.928;2.138;2023-05-10T21:13:49;100481.25;;;19.82;56.60
44825;BME280;30542;47.928;2.138;2023-05-10T21:18:50;100478.06;;;19.80;57.35
44825;BME280;30542;47.928;2.138;2023-05-10T21:23:50;100487.94;;;19.79;56.78
44825;BME280;30542;47.928;2.138;2023-05-10T21:28:50;100489.81;;;19.79;56.82
44825;BME280;30542;47.928;2.138;2023-05-10T21:33:51;100480.44;;;19.76;57.04
44825;BME280;30542;47.928;2.138;2023-05-10T21:38:51;100482.84;;;19.78;56.78
44825;BME280;30542;47.928;2.138;2023-05-10T21:43:51;100472.16;;;19.78;56.81
44825;BME280;30542;47.928;2.138;2023-05-10T21:48:52;100468.44;;;19.79;56.67
44825;BME280;30542;47.928;2.138;2023-05-10T21:53:52;100468.44;;;19.79;56.52
44825;BME280;30542;47.928;2.138;2023-05-10T21:58:53;100474.59;;;19.79;56.34
44825;BME280;30542;47.928;2.138;2023-05-10T22:03:53;100480.47;;;19.81;56.42
44825;BME280;30542;47.928;2.138;2023-05-10T22:08:54;100478.31;;;19.78;56.30
44825;BME280;30542;47.928;2.138;2023-05-10T22:13:54;100475.66;;;19.78;56.41
44825;BME280;30542;47.928;2.138;2023-05-10T22:18:55;100474.03;;;19.77;56.28
44825;BME280;30542;47.928;2.138;2023-05-10T22:23:55;100482.03;;;19.77;56.33
44825;BME280;30542;47.928;2.138;2023-05-10T22:28:55;100480.13;;;19.73;56.68
44825;BME280;30542;47.928;2.138;2023-05-10T22:33:56;100472.91;;;19.68;56.33
44825;BME280;30542;47.928;2.138;2023-05-10T22:38:56;100478.53;;;19.72;56.42
44825;BME280;30542;47.928;2.138;2023-05-10T22:43:57;100481.22;;;19.72;56.33
44825;BME280;30542;47.928;2.138;2023-05-10T22:48:58;100478.03;;;19.75;56.21
44825;BME280;30542;47.928;2.138;2023-05-10T22:53:58;100487.09;;;19.74;56.29
44825;BME280;30542;47.928;2.138;2023-05-10T22:58:59;100489.22;;;19.72;56.39
44825;BME280;30542;47.928;2.138;2023-05-10T23:03:59;100482.53;;;19.69;56.48
44825;BME280;30542;47.928;2.138;2023-05-10T23:08:59;100480.91;;;19.68;56.63
44825;BME280;30542;47.928;2.138;2023-05-10T23:14:00;100489.19;;;19.67;56.80
44825;BME280;30542;47.928;2.138;2023-05-10T23:19:00;100490.00;;;19.67;56.55
44825;BME280;30542;47.928;2.138;2023-05-10T23:24:01;100488.63;;;19.65;56.64
44825;BME280;30542;47.928;2.138;2023-05-10T23:29:01;100488.63;;;19.65;56.36
44825;BME280;30542;47.928;2.138;2023-05-10T23:34:01;100488.63;;;19.65;56.33
44825;BME280;30542;47.928;2.138;2023-05-10T23:39:02;100480.63;;;19.65;56.49
44825;BME280;30542;47.928;2.138;2023-05-10T23:44:03;100487.84;;;19.64;56.48
44825;BME280;30542;47.928;2.138;2023-05-10T23:49:03;100486.78;;;19.65;56.48
44825;BME280;30542;47.928;2.138;2023-05-10T23:54:04;100481.41;;;19.65;56.54
44825;BME280;30542;47.928;2.138;2023-05-10T23:59:04;100482.22;;;19.66;56.33
